Time,TemperatureF,DewpointF,PressureIn,WindDirection,WindDirectionDegrees,WindSpeedMPH,WindSpeedGustMPH,Humidity,HourlyPrecipIn,Conditions,Clouds,dailyrainin,SolarRadiationWatts/m^2,SoftwareType,DateUTC
2013-06-18 00:02:00,77.3,49.0,30.06,ESE,118,11.0,15.0,37,0.00,,SCT150,0.00,0.00,VWS V14.01,2013-06-18 06:02:00,
2013-06-18 00:07:00,77.0,48.8,30.06,ESE,122,3.0,16.0,37,0.00,,SCT150,0.00,0.00,VWS V14.01,2013-06-18 06:07:00,
2013-06-18 00:12:00,76.6,47.7,30.07,SE,130,9.0,23.0,36,0.00,,SCT150,0.00,0.00,VWS V14.01,2013-06-18 06:12:00,
2013-06-18 00:17:00,76.3,47.4,30.07,NE,56,16.0,19.0,36,0.00,,SCT150,0.00,0.00,VWS V14.01,2013-06-18 06:17:00,
2013-06-18 00:22:00,76.1,47.2,30.07,ESE,103,8.0,18.0,36,0.00,,SCT150,0.00,0.00,VWS V14.01,2013-06-18 06:22:00,
2013-06-18 00:28:00,76.0,47.9,30.07,ESE,119,7.0,20.0,37,0.00,,SCT150,0.00,0.00,VWS V14.01,2013-06-18 06:28:00,
2013-06-18 00:33:00,75.9,47.8,30.07,East,84,9.0,20.0,37,0.00,,SCT150,0.00,0.00,VWS V14.01,2013-06-18 06:33:00,
2013-06-18 00:38:00,75.9,48.5,30.08,ENE,70,8.0,16.0,38,0.00,,SCT150,0.00,0.00,VWS V14.01,2013-06-18 06:38:00,
2013-06-18 00:43:00,75.9,48.5,30.08,East,94,14.0,14.0,38,0.00,,SCT150,0.00,0.00,VWS V14.01,2013-06-18 06:43:00,
2013-06-18 00:48:00,75.8,49.1,30.08,SE,133,8.0,15.0,39,0.00,,SCT150,0.00,0.00,VWS V14.01,2013-06-18 06:48:00,
2013-06-18 00:53:00,75.8,49.1,30.08,East,80,3.0,8.0,39,0.00,,SCT150,0.00,0.00,VWS V14.01,2013-06-18 06:53:00,
2013-06-18 00:58:00,75.7,49.0,30.09,ESE,121,4.0,11.0,39,0.00,,SCT150,0.00,0.00,VWS V14.01,2013-06-18 06:58:00,
2013-06-18 01:03:00,75.7,49.7,30.09,ESE,123,5.0,10.0,40,0.00,,SCT150,0.00,0.00,VWS V14.01,2013-06-18 07:03:00,
2013-06-18 01:08:00,75.6,50.3,30.09,East,101,9.0,10.0,41,0.00,,SCT150,0.00,0.00,VWS V14.01,2013-06-18 07:08:00,
2013-06-18 01:13:00,75.5,50.2,30.09,ESE,121,7.0,22.0,41,0.00,,SCT150,0.00,0.00,VWS V14.01,2013-06-18 07:13:00,
2013-06-18 01:18:00,75.3,49.3,30.09,ENE,71,9.0,15.0,40,0.00,,SCT150,0.00,0.00,VWS V14.01,2013-06-18 07:18:00,
2013-06-18 01:23:00,75.2,49.2,30.09,ESE,111,4.0,11.0,40,0.00,,SCT150,0.00,0.00,VWS V14.01,2013-06-18 07:23:00,
2013-06-18 01:28:00,75.1,49.8,30.09,East,81,5.0,9.0,41,0.00,,SCT150,0.00,0.00,VWS V14.01,2013-06-18 07:28:00,
2013-06-18 01:33:00,74.9,50.3,30.09,ESE,102,7.0,8.0,42,0.00,,SCT150,0.00,0.00,VWS V14.01,2013-06-18 07:33:00,
2013-06-18 01:38:00,74.7,50.1,30.09,SE,136,7.0,12.0,42,0.00,,SCT150,0.00,0.00,VWS V14.01,2013-06-18 07:38:00,
2013-06-18 01:43:00,74.5,49.9,30.10,ESE,106,2.0,8.0,42,0.00,,SCT150,0.00,0.00,VWS V14.01,2013-06-18 07:43:00,
2013-06-18 01:49:00,74.3,50.4,30.10,ESE,109,1.0,5.0,43,0.00,,SCT150,0.00,0.00,VWS V14.01,2013-06-18 07:49:00,
2013-06-18 01:54:00,74.1,50.2,30.10,East,99,3.0,3.0,43,0.00,,SCT150,0.00,0.00,VWS V14.01,2013-06-18 07:54:00,
2013-06-18 01:59:00,74.0,49.5,30.11,SE,131,2.0,14.0,42,0.00,,SCT150,0.00,0.00,VWS V14.01,2013-06-18 07:59:00,
2013-06-18 02:04:00,73.9,50.0,30.11,SSE,147,5.0,13.0,43,0.00,,SCT150,0.00,0.00,VWS V14.01,2013-06-18 08:04:00,
2013-06-18 02:09:00,73.7,49.8,30.11,SSE,150,6.0,13.0,43,0.00,,SCT150,0.00,0.00,VWS V14.01,2013-06-18 08:09:00,
2013-06-18 02:14:00,73.5,50.3,30.10,South,171,0.0,10.0,44,0.00,,SCT150,0.00,0.00,VWS V14.01,2013-06-18 08:14:00,
2013-06-18 02:19:00,73.3,50.7,30.11,ESE,110,2.0,5.0,45,0.00,,SCT150,0.00,0.00,VWS V14.01,2013-06-18 08:19:00,
2013-06-18 02:24:00,73.1,50.5,30.10,ESE,109,1.0,1.0,45,0.00,,SCT150,0.00,0.00,VWS V14.01,2013-06-18 08:24:00,
2013-06-18 02:29:00,72.9,50.9,30.10,SE,142,1.0,3.0,46,0.00,,SCT150,0.00,0.00,VWS V14.01,2013-06-18 08:29:00,
2013-06-18 02:34:00,72.8,51.4,30.11,ESE,105,0.0,0.0,47,0.00,,SCT150,0.00,0.00,VWS V14.01,2013-06-18 08:34:00,
2013-06-18 02:39:00,72.6,51.2,30.11,SSE,157,3.0,4.0,47,0.00,,SCT150,0.00,0.00,VWS V14.01,2013-06-18 08:39:00,
2013-06-18 02:44:00,72.4,51.6,30.11,SSE,154,2.0,3.0,48,0.00,,SCT150,0.00,0.00,VWS V14.01,2013-06-18 08:44:00,
2013-06-18 02:49:00,72.0,51.8,30.11,SE,142,2.0,5.0,49,0.00,,SCT150,0.00,0.00,VWS V14.01,2013-06-18 08:49:00,
2013-06-18 02:54:00,71.8,51.6,30.11,NNW,327,2.0,3.0,49,0.00,,SCT150,0.00,0.00,VWS V14.01,2013-06-18 08:54:00,
2013-06-18 02:59:00,71.5,51.9,30.11,East,100,7.0,9.0,50,0.00,,SCT150,0.00,0.00,VWS V14.01,2013-06-18 08:59:00,
2013-06-18 03:04:00,71.3,52.3,30.11,ESE,106,4.0,9.0,51,0.00,,-RA,0.00,0.00,VWS V14.01,2013-06-18 09:04:00,
2013-06-18 03:10:00,71.0,52.0,30.11,South,176,5.0,6.0,51,0.00,,-RA,0.00,0.00,VWS V14.01,2013-06-18 09:10:00,
2013-06-18 03:15:00,70.8,51.8,30.11,ESE,103,0.0,7.0,51,0.00,,-RA,0.00,0.00,VWS V14.01,2013-06-18 09:15:00,
2013-06-18 03:20:00,70.7,52.2,30.11,SE,129,4.0,8.0,52,0.00,,-RA,0.00,0.00,VWS V14.01,2013-06-18 09:20:00,
2013-06-18 03:25:00,70.6,51.6,30.11,East,94,3.0,6.0,51,0.00,,-RA,0.00,0.00,VWS V14.01,2013-06-18 09:25:00,
2013-06-18 03:30:00,70.6,52.1,30.11,East,97,0.0,3.0,52,0.00,,-RA,0.00,0.00,VWS V14.01,2013-06-18 09:30:00,
2013-06-18 03:35:00,70.5,52.0,30.12,ESE,106,1.0,3.0,52,0.00,,-RA,0.00,0.00,VWS V14.01,2013-06-18 09:35:00,
2013-06-18 03:40:00,70.3,51.9,30.12,ESE,121,1.0,6.0,52,0.00,,-RA,0.00,0.00,VWS V14.01,2013-06-18 09:40:00,
2013-06-18 03:45:00,70.1,52.2,30.11,East,87,3.0,3.0,53,0.00,,-RA,0.00,0.00,VWS V14.01,2013-06-18 09:45:00,
2013-06-18 03:50:00,69.9,52.0,30.12,SE,140,4.0,7.0,53,0.00,,-RA,0.00,0.00,VWS V14.01,2013-06-18 09:50:00,
2013-06-18 03:55:00,69.7,51.3,30.12,ESE,111,1.0,6.0,52,0.00,,-RA,0.00,0.00,VWS V14.01,2013-06-18 09:55:00,
2013-06-18 04:00:00,69.6,51.7,30.12,ESE,111,2.0,5.0,53,0.00,,-RA,0.00,0.00,VWS V14.01,2013-06-18 10:00:00,
2013-06-18 04:05:00,69.5,51.6,30.12,SE,124,3.0,10.0,53,0.00,,SCT130,0.00,0.00,VWS V14.01,2013-06-18 10:05:00,
2013-06-18 04:10:00,69.5,51.6,30.13,ESE,112,7.0,7.0,53,0.00,,SCT130,0.00,0.00,VWS V14.01,2013-06-18 10:10:00,
2013-06-18 04:15:00,69.4,52.5,30.13,East,96,0.0,2.0,55,0.00,,SCT130,0.00,0.00,VWS V14.01,2013-06-18 10:15:00,
2013-06-18 04:20:00,69.2,51.9,30.13,ESE,102,3.0,5.0,54,0.00,,SCT130,0.00,0.00,VWS V14.01,2013-06-18 10:20:00,
2013-06-18 04:25:00,69.0,51.7,30.13,East,94,3.0,3.0,54,0.00,,SCT130,0.00,0.00,VWS V14.01,2013-06-18 10:25:00,
2013-06-18 04:30:00,68.9,51.6,30.13,East,101,0.0,0.0,54,0.00,,SCT130,0.00,0.00,VWS V14.01,2013-06-18 10:30:00,
2013-06-18 04:35:00,68.7,51.4,30.13,East,89,1.0,5.0,54,0.00,,SCT130,0.00,0.00,VWS V14.01,2013-06-18 10:35:00,
2013-06-18 04:40:00,68.6,51.8,30.13,ENE,75,0.0,0.0,55,0.00,,SCT130,0.00,0.00,VWS V14.01,2013-06-18 10:40:00,
2013-06-18 04:45:00,68.4,51.6,30.13,ENE,74,0.0,0.0,55,0.00,,SCT130,0.00,0.00,VWS V14.01,2013-06-18 10:45:00,
2013-06-18 04:50:00,68.2,51.9,30.13,ENE,74,0.0,0.0,56,0.00,,SCT130,0.00,0.00,VWS V14.01,2013-06-18 10:50:00,
2013-06-18 04:55:00,67.9,52.1,30.14,ENE,74,0.0,0.0,57,0.00,,SCT130,0.00,0.00,VWS V14.01,2013-06-18 10:55:00,
2013-06-18 05:00:00,67.7,51.9,30.13,ESE,121,0.0,4.0,57,0.00,,SCT130,0.00,0.00,VWS V14.01,2013-06-18 11:00:00,
2013-06-18 05:06:00,67.6,51.4,30.14,East,88,3.0,14.0,56,0.00,,SCT130,0.00,0.00,VWS V14.01,2013-06-18 11:06:00,
2013-06-18 05:11:00,67.5,51.8,30.14,ESE,118,0.0,3.0,57,0.00,,SCT130,0.00,0.00,VWS V14.01,2013-06-18 11:11:00,
2013-06-18 05:16:00,67.5,52.2,30.14,ESE,117,3.0,3.0,58,0.00,,SCT130,0.00,0.00,VWS V14.01,2013-06-18 11:16:00,
2013-06-18 05:21:00,67.5,51.3,30.14,North,355,5.0,8.0,56,0.00,,SCT130,0.00,0.00,VWS V14.01,2013-06-18 11:21:00,
2013-06-18 05:26:00,67.6,51.4,30.14,NNE,13,0.0,2.0,56,0.00,,SCT130,0.00,0.00,VWS V14.01,2013-06-18 11:26:00,
2013-06-18 05:31:00,67.5,51.8,30.14,NNE,13,0.0,0.0,57,0.00,,SCT130,0.00,0.00,VWS V14.01,2013-06-18 11:31:00,
2013-06-18 05:36:00,67.4,51.2,30.14,NNE,13,0.0,0.0,56,0.00,,SCT130,0.00,0.00,VWS V14.01,2013-06-18 11:36:00,
2013-06-18 05:41:00,67.4,51.2,30.15,NNE,13,0.0,0.0,56,0.00,,SCT130,0.00,0.00,VWS V14.01,2013-06-18 11:41:00,
2013-06-18 05:46:00,67.2,51.5,30.15,NNE,13,0.0,0.0,57,0.00,,SCT130,0.00,0.00,VWS V14.01,2013-06-18 11:46:00,
2013-06-18 05:51:00,66.9,51.2,30.16,NNE,13,0.0,0.0,57,0.00,,SCT130,0.00,0.00,VWS V14.01,2013-06-18 11:51:00,
2013-06-18 05:56:00,66.7,51.5,30.16,NNE,13,0.0,0.0,58,0.00,,SCT130,0.00,5.00,VWS V14.01,2013-06-18 11:56:00,
2013-06-18 06:01:00,66.5,51.3,30.16,NNE,15,0.0,1.0,58,0.00,,CLR,0.00,7.00,VWS V14.01,2013-06-18 12:01:00,
2013-06-18 06:06:00,66.3,51.1,30.16,NNE,15,0.0,1.0,58,0.00,,CLR,0.00,11.00,VWS V14.01,2013-06-18 12:06:00,
2013-06-18 06:11:00,66.0,51.3,30.16,SE,131,1.0,6.0,59,0.00,,CLR,0.00,12.00,VWS V14.01,2013-06-18 12:11:00,
2013-06-18 06:16:00,65.9,51.2,30.16,SSE,163,0.0,3.0,59,0.00,,CLR,0.00,16.00,VWS V14.01,2013-06-18 12:16:00,
2013-06-18 06:21:00,65.9,51.2,30.16,ESE,117,1.0,8.0,59,0.00,,CLR,0.00,19.00,VWS V14.01,2013-06-18 12:21:00,
2013-06-18 06:26:00,66.0,51.3,30.16,ESE,115,2.0,7.0,59,0.00,,CLR,0.00,21.00,VWS V14.01,2013-06-18 12:26:00,
2013-06-18 06:31:00,66.2,51.5,30.16,ESE,113,2.0,7.0,59,0.00,,CLR,0.00,25.00,VWS V14.01,2013-06-18 12:31:00,
2013-06-18 06:36:00,66.3,51.6,30.17,ESE,108,0.0,10.0,59,0.00,,CLR,0.00,28.00,VWS V14.01,2013-06-18 12:36:00,
2013-06-18 06:41:00,66.5,51.8,30.17,SE,125,0.0,9.0,59,0.00,,CLR,0.00,30.00,VWS V14.01,2013-06-18 12:41:00,
2013-06-18 06:46:00,66.6,51.8,30.17,ESE,113,4.0,5.0,59,0.00,,CLR,0.00,33.00,VWS V14.01,2013-06-18 12:46:00,
2013-06-18 06:51:00,66.8,52.0,30.17,ESE,116,4.0,7.0,59,0.00,,CLR,0.00,35.00,VWS V14.01,2013-06-18 12:51:00,
2013-06-18 06:56:00,67.0,51.8,30.17,ESE,105,3.0,9.0,58,0.00,,CLR,0.00,39.00,VWS V14.01,2013-06-18 12:56:00,
2013-06-18 07:01:00,67.1,51.8,30.17,ESE,113,5.0,8.0,58,0.00,,CLR,0.00,44.00,VWS V14.01,2013-06-18 13:01:00,
2013-06-18 07:06:00,67.3,52.5,30.17,East,87,1.0,8.0,59,0.00,,CLR,0.00,47.00,VWS V14.01,2013-06-18 13:06:00,
2013-06-18 07:11:00,67.4,52.1,30.18,ESE,120,4.0,13.0,58,0.00,,CLR,0.00,47.00,VWS V14.01,2013-06-18 13:11:00,
2013-06-18 07:16:00,67.6,51.8,30.18,East,101,3.0,9.0,57,0.00,,CLR,0.00,58.00,VWS V14.01,2013-06-18 13:16:00,
2013-06-18 07:21:00,67.8,52.0,30.18,ESE,116,4.0,9.0,57,0.00,,CLR,0.00,181.00,VWS V14.01,2013-06-18 13:21:00,
2013-06-18 07:26:00,68.0,52.2,30.18,ENE,63,2.0,8.0,57,0.00,,CLR,0.00,221.00,VWS V14.01,2013-06-18 13:26:00,
2013-06-18 07:31:00,68.3,52.0,30.18,ESE,123,5.0,10.0,56,0.00,,FEW045,0.00,237.00,VWS V14.01,2013-06-18 13:31:00,
2013-06-18 07:37:00,68.9,52.6,30.18,SE,128,3.0,8.0,56,0.00,,FEW045,0.00,255.00,VWS V14.01,2013-06-18 13:37:00,
2013-06-18 07:42:00,69.3,52.5,30.18,ESE,121,0.0,7.0,55,0.00,,FEW045,0.00,274.00,VWS V14.01,2013-06-18 13:42:00,
2013-06-18 07:47:00,69.9,52.5,30.18,South,171,6.0,17.0,54,0.00,,FEW045,0.00,288.00,VWS V14.01,2013-06-18 13:47:00,
2013-06-18 07:52:00,70.2,52.3,30.19,ESE,112,4.0,13.0,53,0.00,,FEW045,0.00,308.00,VWS V14.01,2013-06-18 13:52:00,
2013-06-18 07:57:00,70.5,52.0,30.19,ESE,121,2.0,14.0,52,0.00,,FEW045,0.00,320.00,VWS V14.01,2013-06-18 13:57:00,
2013-06-18 08:02:00,70.7,52.2,30.19,ESE,118,12.0,12.0,52,0.00,,FEW040,0.00,334.00,VWS V14.01,2013-06-18 14:02:00,
2013-06-18 08:07:00,71.0,52.5,30.19,SE,137,9.0,12.0,52,0.00,,FEW040,0.00,353.00,VWS V14.01,2013-06-18 14:07:00,
2013-06-18 08:12:00,71.2,52.2,30.19,ESE,119,5.0,9.0,51,0.00,,FEW040,0.00,371.00,VWS V14.01,2013-06-18 14:12:00,
2013-06-18 08:17:00,71.4,52.3,30.19,ESE,122,10.0,10.0,51,0.00,,FEW040,0.00,383.00,VWS V14.01,2013-06-18 14:17:00,
2013-06-18 08:22:00,71.7,52.6,30.19,SSE,159,2.0,10.0,51,0.00,,FEW040,0.00,403.00,VWS V14.01,2013-06-18 14:22:00,
2013-06-18 08:27:00,72.0,52.4,30.19,ESE,111,9.0,9.0,50,0.00,,FEW040,0.00,420.00,VWS V14.01,2013-06-18 14:27:00,
2013-06-18 08:32:00,72.5,52.8,30.19,SE,131,2.0,11.0,50,0.00,,FEW040,0.00,434.00,VWS V14.01,2013-06-18 14:32:00,
2013-06-18 08:37:00,72.7,52.5,30.19,East,94,2.0,9.0,49,0.00,,FEW040,0.00,452.00,VWS V14.01,2013-06-18 14:37:00,
2013-06-18 08:42:00,73.1,53.4,30.19,South,169,0.0,5.0,50,0.00,,FEW040,0.00,466.00,VWS V14.01,2013-06-18 14:42:00,
2013-06-18 08:47:00,73.2,52.9,30.19,East,96,3.0,8.0,49,0.00,,FEW040,0.00,483.00,VWS V14.01,2013-06-18 14:47:00,
2013-06-18 08:52:00,73.5,52.6,30.19,ESE,106,4.0,11.0,48,0.00,,FEW040,0.00,496.00,VWS V14.01,2013-06-18 14:52:00,
2013-06-18 08:57:00,73.9,53.0,30.19,SE,132,3.0,13.0,48,0.00,,FEW040,0.00,510.00,VWS V14.01,2013-06-18 14:57:00,
2013-06-18 09:02:00,74.4,53.5,30.19,ESE,111,2.0,9.0,48,0.00,,FEW040,0.00,527.00,VWS V14.01,2013-06-18 15:02:00,
2013-06-18 09:07:00,74.5,54.1,30.19,East,91,2.0,9.0,49,0.00,,FEW040,0.00,538.00,VWS V14.01,2013-06-18 15:07:00,
2013-06-18 09:12:00,75.1,53.5,30.19,ENE,67,0.0,8.0,47,0.00,,FEW040,0.00,559.00,VWS V14.01,2013-06-18 15:12:00,
2013-06-18 09:17:00,75.4,53.8,30.19,SE,138,0.0,6.0,47,0.00,,FEW040,0.00,571.00,VWS V14.01,2013-06-18 15:17:00,
2013-06-18 09:22:00,75.3,53.1,30.19,SE,136,2.0,10.0,46,0.00,,FEW040,0.00,587.00,VWS V14.01,2013-06-18 15:22:00,
2013-06-18 09:27:00,75.5,53.3,30.19,SE,130,4.0,9.0,46,0.00,,FEW040,0.00,598.00,VWS V14.01,2013-06-18 15:27:00,
2013-06-18 09:33:00,75.7,52.9,30.19,ESE,105,4.0,11.0,45,0.00,,FEW040,0.00,610.00,VWS V14.01,2013-06-18 15:33:00,
2013-06-18 09:38:00,75.8,53.6,30.19,ESE,113,7.0,11.0,46,0.00,,FEW040,0.00,624.00,VWS V14.01,2013-06-18 15:38:00,
2013-06-18 09:43:00,76.2,53.9,30.19,SSE,148,3.0,7.0,46,0.00,,FEW040,0.00,636.00,VWS V14.01,2013-06-18 15:43:00,
2013-06-18 09:48:00,75.8,53.6,30.19,ESE,111,0.0,5.0,46,0.00,,FEW040,0.00,652.00,VWS V14.01,2013-06-18 15:48:00,
2013-06-18 09:53:00,76.2,52.7,30.18,East,86,7.0,10.0,44,0.00,,FEW040,0.00,666.00,VWS V14.01,2013-06-18 15:53:00,
2013-06-18 09:58:00,76.8,53.3,30.18,ESE,118,5.0,9.0,44,0.00,,FEW040,0.00,675.00,VWS V14.01,2013-06-18 15:58:00,
2013-06-18 10:03:00,77.3,53.1,30.18,ESE,117,2.0,9.0,43,0.00,,FEW040,0.00,691.00,VWS V14.01,2013-06-18 16:03:00,
2013-06-18 10:08:00,77.6,54.0,30.18,South,169,3.0,9.0,44,0.00,,FEW040,0.00,703.00,VWS V14.01,2013-06-18 16:08:00,
2013-06-18 10:13:00,77.8,54.2,30.18,ESE,111,8.0,9.0,44,0.00,,FEW040,0.00,719.00,VWS V14.01,2013-06-18 16:13:00,
2013-06-18 10:18:00,78.4,54.1,30.18,SE,140,2.0,10.0,43,0.00,,FEW040,0.00,733.00,VWS V14.01,2013-06-18 16:18:00,
2013-06-18 10:23:00,78.6,53.0,30.18,SE,146,2.0,11.0,41,0.00,,FEW040,0.00,738.00,VWS V14.01,2013-06-18 16:23:00,
2013-06-18 10:28:00,78.8,53.8,30.18,ESE,115,2.0,7.0,42,0.00,,FEW040,0.00,754.00,VWS V14.01,2013-06-18 16:28:00,
2013-06-18 10:33:00,78.9,53.2,30.17,ESE,109,7.0,7.0,41,0.00,,FEW040,0.00,766.00,VWS V14.01,2013-06-18 16:33:00,
2013-06-18 10:38:00,79.4,53.7,30.17,SSE,165,5.0,9.0,41,0.00,,FEW040,0.00,777.00,VWS V14.01,2013-06-18 16:38:00,
2013-06-18 10:43:00,79.6,53.2,30.18,ESE,118,0.0,6.0,40,0.00,,FEW040,0.00,789.00,VWS V14.01,2013-06-18 16:43:00,
2013-06-18 10:49:00,80.0,52.8,30.18,SSE,162,0.0,6.0,39,0.00,,FEW040,0.00,802.00,VWS V14.01,2013-06-18 16:49:00,
2013-06-18 10:54:00,80.0,52.8,30.18,SSE,153,2.0,9.0,39,0.00,,FEW040,0.00,810.00,VWS V14.01,2013-06-18 16:54:00,
2013-06-18 10:59:00,80.7,53.5,30.17,ESE,107,5.0,7.0,39,0.00,,FEW040,0.00,816.00,VWS V14.01,2013-06-18 16:59:00,
2013-06-18 11:04:00,80.7,53.5,30.17,ESE,107,7.0,7.0,39,0.00,,FEW040,0.00,837.00,VWS V14.01,2013-06-18 17:04:00,
2013-06-18 11:09:00,80.8,52.1,30.17,East,98,0.0,8.0,37,0.00,,FEW040,0.00,842.00,VWS V14.01,2013-06-18 17:09:00,
2013-06-18 11:14:00,81.3,52.6,30.17,ENE,71,0.0,1.0,37,0.00,,FEW040,0.00,846.00,VWS V14.01,2013-06-18 17:14:00,
2013-06-18 11:19:00,82.0,52.4,30.17,ESE,105,3.0,7.0,36,0.00,,FEW040,0.00,858.00,VWS V14.01,2013-06-18 17:19:00,
2013-06-18 11:24:00,82.4,52.0,30.17,ESE,123,0.0,5.0,35,0.00,,FEW040,0.00,875.00,VWS V14.01,2013-06-18 17:24:00,
2013-06-18 11:29:00,82.8,53.9,30.17,SE,145,0.0,9.0,37,0.00,,FEW040,0.00,872.00,VWS V14.01,2013-06-18 17:29:00,
2013-06-18 11:34:00,82.8,52.4,30.16,East,100,0.0,0.0,35,0.00,,FEW040,0.00,884.00,VWS V14.01,2013-06-18 17:34:00,
2013-06-18 11:39:00,83.0,52.6,30.16,SE,134,1.0,2.0,35,0.00,,FEW040,0.00,895.00,VWS V14.01,2013-06-18 17:39:00,
2013-06-18 11:44:00,82.9,53.2,30.16,SSE,158,2.0,3.0,36,0.00,,FEW040,0.00,940.00,VWS V14.01,2013-06-18 17:44:00,
2013-06-18 11:50:00,83.2,52.7,30.16,SSE,156,6.0,9.0,35,0.00,,FEW040,0.00,904.00,VWS V14.01,2013-06-18 17:50:00,
2013-06-18 11:55:00,83.7,53.2,30.15,SSE,154,0.0,1.0,35,0.00,,FEW040,0.00,896.00,VWS V14.01,2013-06-18 17:55:00,
2013-06-18 12:00:00,83.9,54.1,30.15,South,179,0.0,3.0,36,0.00,,FEW040,0.00,909.00,VWS V14.01,2013-06-18 18:00:00,
2013-06-18 12:05:00,83.9,54.1,30.15,SE,141,0.0,5.0,36,0.00,,SCT050,0.00,898.00,VWS V14.01,2013-06-18 18:05:00,
2013-06-18 12:10:00,84.7,53.3,30.14,East,88,5.0,5.0,34,0.00,,SCT050,0.00,902.00,VWS V14.01,2013-06-18 18:10:00,
2013-06-18 12:15:00,85.2,52.0,30.14,NE,41,1.0,6.0,32,0.00,,SCT050,0.00,905.00,VWS V14.01,2013-06-18 18:15:00,
2013-06-18 12:20:00,86.0,54.4,30.14,ESE,109,8.0,8.0,34,0.00,,SCT050,0.00,898.00,VWS V14.01,2013-06-18 18:20:00,
2013-06-18 12:25:00,86.4,51.3,30.14,SE,144,1.0,3.0,30,0.00,,SCT050,0.00,905.00,VWS V14.01,2013-06-18 18:25:00,
2013-06-18 12:30:00,86.2,53.8,30.14,ENE,58,0.0,3.0,33,0.00,,SCT050,0.00,904.00,VWS V14.01,2013-06-18 18:30:00,
2013-06-18 12:35:00,86.3,52.1,30.14,SSW,196,3.0,5.0,31,0.00,,SCT050,0.00,900.00,VWS V14.01,2013-06-18 18:35:00,
2013-06-18 12:40:00,85.6,52.4,30.13,SSW,192,0.0,3.0,32,0.00,,SCT050,0.00,898.00,VWS V14.01,2013-06-18 18:40:00,
2013-06-18 12:46:00,85.4,52.2,30.13,South,178,0.0,3.0,32,0.00,,SCT050,0.00,889.00,VWS V14.01,2013-06-18 18:46:00,
2013-06-18 12:51:00,85.5,52.3,30.13,East,90,5.0,6.0,32,0.00,,SCT050,0.00,918.00,VWS V14.01,2013-06-18 18:51:00,
2013-06-18 12:56:00,86.1,51.1,30.13,West,270,0.0,5.0,30,0.00,,SCT050,0.00,940.00,VWS V14.01,2013-06-18 18:56:00,
2013-06-18 13:01:00,87.1,51.0,30.12,East,91,2.0,7.0,29,0.00,,SCT070,0.00,933.00,VWS V14.01,2013-06-18 19:01:00,
2013-06-18 13:06:00,87.4,50.3,30.12,ENE,69,3.0,7.0,28,0.00,,SCT070,0.00,935.00,VWS V14.01,2013-06-18 19:06:00,
2013-06-18 13:11:00,88.0,50.8,30.12,ENE,78,3.0,7.0,28,0.00,,SCT070,0.00,928.00,VWS V14.01,2013-06-18 19:11:00,
2013-06-18 13:16:00,88.6,52.3,30.12,NNE,17,2.0,3.0,29,0.00,,SCT070,0.00,928.00,VWS V14.01,2013-06-18 19:16:00,
2013-06-18 13:21:00,89.0,53.6,30.12,SE,142,1.0,4.0,30,0.00,,SCT070,0.00,926.00,VWS V14.01,2013-06-18 19:21:00,
2013-06-18 13:26:00,88.8,52.5,30.11,South,186,0.0,5.0,29,0.00,,SCT070,0.00,926.00,VWS V14.01,2013-06-18 19:26:00,
2013-06-18 13:31:00,89.0,51.7,30.11,South,187,2.0,3.0,28,0.00,,SCT070,0.00,919.00,VWS V14.01,2013-06-18 19:31:00,
2013-06-18 13:36:00,89.8,52.4,30.11,ESE,121,1.0,3.0,28,0.00,,SCT070,0.00,918.00,VWS V14.01,2013-06-18 19:36:00,
2013-06-18 13:41:00,89.6,52.2,30.11,East,90,0.0,8.0,28,0.00,,SCT070,0.00,911.00,VWS V14.01,2013-06-18 19:41:00,
2013-06-18 13:46:00,89.7,51.3,30.10,NNW,340,1.0,9.0,27,0.00,,SCT070,0.00,921.00,VWS V14.01,2013-06-18 19:46:00,
2013-06-18 13:51:00,90.5,51.0,30.10,NNE,32,0.0,4.0,26,0.00,,SCT070,0.00,912.00,VWS V14.01,2013-06-18 19:51:00,
2013-06-18 13:57:00,91.0,52.4,30.10,ESE,118,0.0,5.0,27,0.00,,SCT070,0.00,909.00,VWS V14.01,2013-06-18 19:57:00,
2013-06-18 14:02:00,91.4,52.8,30.10,East,92,3.0,5.0,27,0.00,,SCT100,0.00,902.00,VWS V14.01,2013-06-18 20:02:00,
2013-06-18 14:07:00,91.9,51.1,30.09,North,360,1.0,5.0,25,0.00,,SCT100,0.00,893.00,VWS V14.01,2013-06-18 20:07:00,
2013-06-18 14:12:00,91.9,52.2,30.09,North,5,0.0,4.0,26,0.00,,SCT100,0.00,891.00,VWS V14.01,2013-06-18 20:12:00,
2013-06-18 14:17:00,90.9,46.8,30.09,SSE,165,0.0,9.0,22,0.00,,SCT100,0.00,886.00,VWS V14.01,2013-06-18 20:17:00,
2013-06-18 14:22:00,90.4,45.2,30.09,SSW,198,0.0,4.0,21,0.00,,SCT100,0.00,875.00,VWS V14.01,2013-06-18 20:22:00,
2013-06-18 14:27:00,91.0,48.1,30.09,East,101,3.0,3.0,23,0.00,,SCT100,0.00,867.00,VWS V14.01,2013-06-18 20:27:00,
2013-06-18 14:32:00,91.4,47.2,30.08,SE,128,1.0,3.0,22,0.00,,SCT100,0.00,861.00,VWS V14.01,2013-06-18 20:32:00,
2013-06-18 14:37:00,91.7,46.3,30.08,ESE,109,0.0,7.0,21,0.00,,SCT100,0.00,847.00,VWS V14.01,2013-06-18 20:37:00,
2013-06-18 14:42:00,91.7,43.6,30.08,ESE,108,2.0,7.0,19,0.00,,SCT100,0.00,846.00,VWS V14.01,2013-06-18 20:42:00,
2013-06-18 14:47:00,92.1,44.0,30.08,South,182,5.0,7.0,19,0.00,,SCT100,0.00,838.00,VWS V14.01,2013-06-18 20:47:00,
2013-06-18 14:53:00,91.7,46.3,30.08,ESE,123,9.0,9.0,21,0.00,,SCT100,0.00,826.00,VWS V14.01,2013-06-18 20:53:00,
2013-06-18 14:58:00,91.8,45.1,30.08,ESE,113,1.0,4.0,20,0.00,,SCT100,0.00,819.00,VWS V14.01,2013-06-18 20:58:00,
2013-06-18 15:03:00,92.1,44.0,30.07,SSE,163,1.0,5.0,19,0.00,,FEW080,0.00,807.00,VWS V14.01,2013-06-18 21:03:00,
2013-06-18 15:08:00,92.2,45.4,30.07,SE,135,0.0,5.0,20,0.00,,FEW080,0.00,788.00,VWS V14.01,2013-06-18 21:08:00,
2013-06-18 15:13:00,92.5,42.9,30.07,ENE,77,0.0,4.0,18,0.00,,FEW080,0.00,782.00,VWS V14.01,2013-06-18 21:13:00,
2013-06-18 15:18:00,92.6,45.7,30.07,South,176,3.0,7.0,20,0.00,,FEW080,0.00,770.00,VWS V14.01,2013-06-18 21:18:00,
2013-06-18 15:23:00,92.5,45.6,30.07,ESE,115,2.0,3.0,20,0.00,,FEW080,0.00,759.00,VWS V14.01,2013-06-18 21:23:00,
2013-06-18 15:28:00,92.5,45.6,30.06,SE,141,0.0,6.0,20,0.00,,FEW080,0.00,745.00,VWS V14.01,2013-06-18 21:28:00,
2013-06-18 15:33:00,92.6,44.4,30.06,East,96,0.0,3.0,19,0.00,,FEW080,0.00,738.00,VWS V14.01,2013-06-18 21:33:00,
2013-06-18 15:38:00,92.6,44.4,30.06,NNE,33,0.0,5.0,19,0.00,,FEW080,0.00,728.00,VWS V14.01,2013-06-18 21:38:00,
2013-06-18 15:43:00,92.7,45.8,30.05,North,355,0.0,3.0,20,0.00,,FEW080,0.00,715.00,VWS V14.01,2013-06-18 21:43:00,
2013-06-18 15:48:00,92.8,45.9,30.05,NNE,16,0.0,2.0,20,0.00,,FEW080,0.00,703.00,VWS V14.01,2013-06-18 21:48:00,
2013-06-18 15:53:00,93.1,44.8,30.05,SSW,194,3.0,4.0,19,0.00,,FEW080,0.00,687.00,VWS V14.01,2013-06-18 21:53:00,
2013-06-18 15:58:00,92.4,42.8,30.05,South,191,2.0,6.0,18,0.00,,FEW080,0.00,675.00,VWS V14.01,2013-06-18 21:58:00,
2013-06-18 16:04:00,92.2,45.4,30.04,South,190,0.0,2.0,20,0.00,,FEW100,0.00,664.00,VWS V14.01,2013-06-18 22:04:00,
2013-06-18 16:09:00,92.2,45.4,30.04,South,186,5.0,7.0,20,0.00,,FEW100,0.00,649.00,VWS V14.01,2013-06-18 22:09:00,
2013-06-18 16:14:00,92.4,44.2,30.04,South,181,2.0,2.0,19,0.00,,FEW100,0.00,636.00,VWS V14.01,2013-06-18 22:14:00,
2013-06-18 16:19:00,92.2,44.0,30.03,ESE,114,2.0,4.0,19,0.00,,FEW100,0.00,622.00,VWS V14.01,2013-06-18 22:19:00,
2013-06-18 16:24:00,92.3,42.7,30.03,ESE,105,0.0,3.0,18,0.00,,FEW100,0.00,612.00,VWS V14.01,2013-06-18 22:24:00,
2013-06-18 16:29:00,92.3,44.1,30.03,East,96,0.0,0.0,19,0.00,,FEW100,0.00,592.00,VWS V14.01,2013-06-18 22:29:00,
2013-06-18 16:34:00,92.3,42.7,30.02,East,96,3.0,5.0,18,0.00,,FEW100,0.00,580.00,VWS V14.01,2013-06-18 22:34:00,
2013-06-18 16:39:00,92.5,44.3,30.02,South,176,0.0,1.0,19,0.00,,FEW100,0.00,564.00,VWS V14.01,2013-06-18 22:39:00,
2013-06-18 16:44:00,92.6,43.0,30.02,South,177,0.0,2.0,18,0.00,,FEW100,0.00,548.00,VWS V14.01,2013-06-18 22:44:00,
2013-06-18 16:49:00,92.6,43.0,30.01,ESE,111,3.0,8.0,18,0.00,,FEW100,0.00,536.00,VWS V14.01,2013-06-18 22:49:00,
2013-06-18 16:54:00,92.5,41.4,30.01,ESE,106,2.0,14.0,17,0.00,,FEW100,0.00,519.00,VWS V14.01,2013-06-18 22:54:00,
2013-06-18 16:59:00,92.3,41.2,30.01,South,184,0.0,0.0,17,0.00,,FEW100,0.00,506.00,VWS V14.01,2013-06-18 22:59:00,
2013-06-18 17:04:00,92.1,41.1,30.00,ESE,104,3.0,5.0,17,0.00,,FEW100,0.00,494.00,VWS V14.01,2013-06-18 23:04:00,
2013-06-18 17:09:00,92.0,41.0,30.00,SE,143,0.0,1.0,17,0.00,,FEW100,0.00,475.00,VWS V14.01,2013-06-18 23:09:00,
2013-06-18 17:14:00,91.8,40.8,30.00,ESE,117,0.0,5.0,17,0.00,,FEW100,0.00,461.00,VWS V14.01,2013-06-18 23:14:00,
2013-06-18 17:20:00,91.7,42.2,30.00,SSE,151,2.0,5.0,18,0.00,,FEW100,0.00,438.00,VWS V14.01,2013-06-18 23:20:00,
2013-06-18 17:25:00,91.5,42.1,30.00,SSE,158,2.0,4.0,18,0.00,,FEW100,0.00,424.00,VWS V14.01,2013-06-18 23:25:00,
2013-06-18 17:30:00,91.5,43.5,29.99,South,183,5.0,6.0,19,0.00,,FEW100,0.00,410.00,VWS V14.01,2013-06-18 23:30:00,
2013-06-18 17:35:00,91.3,41.9,29.99,SSW,210,1.0,5.0,18,0.00,,FEW100,0.00,392.00,VWS V14.01,2013-06-18 23:35:00,
2013-06-18 17:40:00,91.1,43.2,29.99,SSE,159,1.0,1.0,19,0.00,,FEW100,0.00,376.00,VWS V14.01,2013-06-18 23:40:00,
2013-06-18 17:45:00,91.0,41.7,29.98,SE,136,0.0,3.0,18,0.00,,FEW100,0.00,255.00,VWS V14.01,2013-06-18 23:45:00,
2013-06-18 17:50:00,90.9,43.0,29.99,SSE,164,0.0,3.0,19,0.00,,FEW100,0.00,79.00,VWS V14.01,2013-06-18 23:50:00,
2013-06-18 17:55:00,90.8,41.5,29.98,South,174,1.0,5.0,18,0.00,,FEW100,0.00,97.00,VWS V14.01,2013-06-18 23:55:00,
2013-06-18 18:00:00,90.7,42.8,29.98,ENE,63,1.0,1.0,19,0.00,,FEW100,0.00,79.00,VWS V14.01,2013-06-19 00:00:00,
2013-06-18 18:05:00,90.7,41.4,29.98,SSE,148,2.0,5.0,18,0.00,,FEW100,0.00,188.00,VWS V14.01,2013-06-19 00:05:00,
2013-06-18 18:10:00,90.5,42.7,29.98,South,169,0.0,2.0,19,0.00,,FEW100,0.00,163.00,VWS V14.01,2013-06-19 00:10:00,
2013-06-18 18:15:00,90.4,42.6,29.98,South,189,1.0,5.0,19,0.00,,FEW100,0.00,255.00,VWS V14.01,2013-06-19 00:15:00,
2013-06-18 18:21:00,90.3,41.1,29.97,South,184,3.0,6.0,18,0.00,,FEW100,0.00,216.00,VWS V14.01,2013-06-19 00:21:00,
2013-06-18 18:26:00,90.0,40.8,29.97,SE,142,3.0,3.0,18,0.00,,FEW100,0.00,229.00,VWS V14.01,2013-06-19 00:26:00,
2013-06-18 18:31:00,90.0,42.2,29.97,South,178,2.0,6.0,19,0.00,,FEW100,0.00,214.00,VWS V14.01,2013-06-19 00:31:00,
2013-06-18 18:36:00,89.9,40.8,29.97,SSW,196,5.0,10.0,18,0.00,,FEW100,0.00,200.00,VWS V14.01,2013-06-19 00:36:00,
2013-06-18 18:41:00,89.8,42.1,29.97,ESE,107,2.0,4.0,19,0.00,,FEW100,0.00,185.00,VWS V14.01,2013-06-19 00:41:00,
2013-06-18 18:46:00,89.7,40.6,29.97,SSE,166,1.0,4.0,18,0.00,,FEW100,0.00,134.00,VWS V14.01,2013-06-19 00:46:00,
2013-06-18 18:51:00,89.6,41.9,29.97,South,171,4.0,4.0,19,0.00,,FEW100,0.00,51.00,VWS V14.01,2013-06-19 00:51:00,
2013-06-18 18:56:00,89.5,41.8,29.97,South,180,0.0,5.0,19,0.00,,FEW100,0.00,39.00,VWS V14.01,2013-06-19 00:56:00,
2013-06-18 19:01:00,89.3,41.7,29.97,South,180,4.0,7.0,19,0.00,,FEW100,0.00,49.00,VWS V14.01,2013-06-19 01:01:00,
2013-06-18 19:06:00,89.2,41.6,29.97,SSE,163,1.0,7.0,19,0.00,,FEW100,0.00,44.00,VWS V14.01,2013-06-19 01:06:00,
2013-06-18 19:11:00,89.1,41.5,29.97,South,175,0.0,3.0,19,0.00,,FEW100,0.00,39.00,VWS V14.01,2013-06-19 01:11:00,
2013-06-18 19:17:00,89.0,41.4,29.97,South,182,1.0,3.0,19,0.00,,FEW100,0.00,33.00,VWS V14.01,2013-06-19 01:17:00,
2013-06-18 19:22:00,88.9,42.7,29.97,South,181,0.0,2.0,20,0.00,,FEW100,0.00,32.00,VWS V14.01,2013-06-19 01:22:00,
2013-06-18 19:27:00,88.8,42.6,29.97,South,182,0.0,1.0,20,0.00,,FEW100,0.00,30.00,VWS V14.01,2013-06-19 01:27:00,
2013-06-18 19:32:00,88.7,43.8,29.97,South,182,0.0,1.0,21,0.00,,FEW100,0.00,28.00,VWS V14.01,2013-06-19 01:32:00,
2013-06-18 19:37:00,88.5,42.3,29.97,South,182,2.0,2.0,20,0.00,,FEW100,0.00,26.00,VWS V14.01,2013-06-19 01:37:00,
2013-06-18 19:42:00,88.3,42.2,29.96,South,182,0.0,3.0,20,0.00,,FEW100,0.00,19.00,VWS V14.01,2013-06-19 01:42:00,
2013-06-18 19:47:00,88.2,42.1,29.96,South,182,0.0,0.0,20,0.00,,FEW100,0.00,21.00,VWS V14.01,2013-06-19 01:47:00,
2013-06-18 19:52:00,88.1,43.3,29.96,South,182,0.0,0.0,21,0.00,,FEW100,0.00,19.00,VWS V14.01,2013-06-19 01:52:00,
2013-06-18 19:57:00,87.8,43.0,29.96,South,182,0.0,0.0,21,0.00,,FEW100,0.00,16.00,VWS V14.01,2013-06-19 01:57:00,
2013-06-18 20:02:00,87.6,42.9,29.96,South,182,0.0,1.0,21,0.00,,FEW100,0.00,14.00,VWS V14.01,2013-06-19 02:02:00,
2013-06-18 20:07:00,87.4,42.7,29.96,South,182,0.0,3.0,21,0.00,,FEW100,0.00,12.00,VWS V14.01,2013-06-19 02:07:00,
2013-06-18 20:12:00,87.0,41.1,29.96,South,182,1.0,1.0,20,0.00,,FEW100,0.00,9.00,VWS V14.01,2013-06-19 02:12:00,
2013-06-18 20:17:00,86.6,40.8,29.96,South,182,0.0,1.0,20,0.00,,FEW100,0.00,7.00,VWS V14.01,2013-06-19 02:17:00,
2013-06-18 20:22:00,86.4,41.9,29.96,South,182,2.0,2.0,21,0.00,,FEW100,0.00,5.00,VWS V14.01,2013-06-19 02:22:00,
2013-06-18 20:28:00,86.1,40.4,29.96,South,182,0.0,3.0,20,0.00,,FEW100,0.00,0.00,VWS V14.01,2013-06-19 02:28:00,
2013-06-18 20:33:00,85.9,41.5,29.96,South,182,0.0,1.0,21,0.00,,FEW100,0.00,0.00,VWS V14.01,2013-06-19 02:33:00,
2013-06-18 20:38:00,85.8,42.6,29.96,South,182,0.0,0.0,22,0.00,,FEW100,0.00,0.00,VWS V14.01,2013-06-19 02:38:00,
2013-06-18 20:43:00,85.5,41.2,29.96,South,182,1.0,3.0,21,0.00,,FEW100,0.00,0.00,VWS V14.01,2013-06-19 02:43:00,
2013-06-18 20:48:00,85.3,41.0,29.96,South,186,0.0,5.0,21,0.00,,FEW100,0.00,0.00,VWS V14.01,2013-06-19 02:48:00,
2013-06-18 20:53:00,85.2,42.1,29.96,South,186,2.0,2.0,22,0.00,,FEW100,0.00,0.00,VWS V14.01,2013-06-19 02:53:00,
2013-06-18 20:58:00,85.0,40.7,29.96,South,188,0.0,4.0,21,0.00,,FEW100,0.00,0.00,VWS V14.01,2013-06-19 02:58:00,
2013-06-18 21:03:00,84.9,41.9,29.96,SSE,148,0.0,3.0,22,0.00,,FEW120,0.00,0.00,VWS V14.01,2013-06-19 03:03:00,
2013-06-18 21:08:00,84.8,42.9,29.96,SSE,166,3.0,5.0,23,0.00,,FEW120,0.00,0.00,VWS V14.01,2013-06-19 03:08:00,
2013-06-18 21:13:00,84.7,42.8,29.96,South,171,2.0,6.0,23,0.00,,FEW120,0.00,0.00,VWS V14.01,2013-06-19 03:13:00,
2013-06-18 21:18:00,84.6,43.9,29.97,South,186,0.0,7.0,24,0.00,,FEW120,0.00,0.00,VWS V14.01,2013-06-19 03:18:00,
2013-06-18 21:23:00,84.4,43.7,29.97,SSW,196,2.0,4.0,24,0.00,,FEW120,0.00,0.00,VWS V14.01,2013-06-19 03:23:00,
2013-06-18 21:28:00,84.2,44.6,29.97,SSE,157,2.0,5.0,25,0.00,,FEW120,0.00,0.00,VWS V14.01,2013-06-19 03:28:00,
2013-06-18 21:33:00,84.0,44.4,29.97,South,169,2.0,6.0,25,0.00,,FEW120,0.00,0.00,VWS V14.01,2013-06-19 03:33:00,
2013-06-18 21:38:00,83.9,45.4,29.97,South,189,1.0,10.0,26,0.00,,FEW120,0.00,0.00,VWS V14.01,2013-06-19 03:38:00,
2013-06-18 21:44:00,83.8,45.3,29.97,SSE,167,0.0,5.0,26,0.00,,FEW120,0.00,0.00,VWS V14.01,2013-06-19 03:44:00,
2013-06-18 21:49:00,83.6,45.1,29.97,SSE,167,0.0,4.0,26,0.00,,FEW120,0.00,0.00,VWS V14.01,2013-06-19 03:49:00,
2013-06-18 21:54:00,83.5,45.0,29.97,South,173,1.0,5.0,26,0.00,,FEW120,0.00,0.00,VWS V14.01,2013-06-19 03:54:00,
2013-06-18 21:59:00,83.3,44.9,29.97,South,173,0.0,2.0,26,0.00,,FEW120,0.00,0.00,VWS V14.01,2013-06-19 03:59:00,
2013-06-18 22:01:00,83.3,44.9,29.97,South,173,0.0,3.0,26,0.00,,FEW120,0.00,0.00,VWS V14.01,2013-06-19 04:01:00,
2013-06-18 22:03:00,83.2,44.8,29.97,South,173,0.0,3.0,26,0.00,,FEW120,0.00,0.00,VWS V14.01,2013-06-19 04:03:00,
2013-06-18 22:08:00,83.0,44.6,29.97,SE,132,0.0,3.0,26,0.00,,FEW120,0.00,0.00,VWS V14.01,2013-06-19 04:08:00,
2013-06-18 22:13:00,82.9,44.5,29.97,SSE,168,0.0,3.0,26,0.00,,FEW120,0.00,0.00,VWS V14.01,2013-06-19 04:13:00,
2013-06-18 22:18:00,82.7,45.3,29.97,SSE,166,0.0,3.0,27,0.00,,FEW120,0.00,0.00,VWS V14.01,2013-06-19 04:18:00,
2013-06-18 22:23:00,82.5,45.2,29.97,SSE,167,0.0,2.0,27,0.00,,FEW120,0.00,0.00,VWS V14.01,2013-06-19 04:23:00,
2013-06-18 22:28:00,82.3,45.0,29.97,South,170,1.0,2.0,27,0.00,,FEW120,0.00,0.00,VWS V14.01,2013-06-19 04:28:00,
2013-06-18 22:33:00,82.1,44.8,29.97,South,170,0.0,0.0,27,0.00,,FEW120,0.00,0.00,VWS V14.01,2013-06-19 04:33:00,
2013-06-18 22:38:00,81.8,44.6,29.97,South,170,0.0,1.0,27,0.00,,FEW120,0.00,0.00,VWS V14.01,2013-06-19 04:38:00,
2013-06-18 22:43:00,81.6,45.4,29.97,South,170,0.0,3.0,28,0.00,,FEW120,0.00,0.00,VWS V14.01,2013-06-19 04:43:00,
2013-06-18 22:48:00,81.3,45.1,29.97,South,170,0.0,1.0,28,0.00,,FEW120,0.00,0.00,VWS V14.01,2013-06-19 04:48:00,
2013-06-18 22:53:00,81.1,45.9,29.97,South,170,0.0,1.0,29,0.00,,FEW120,0.00,0.00,VWS V14.01,2013-06-19 04:53:00,
2013-06-18 22:58:00,80.9,45.7,29.97,South,170,0.0,1.0,29,0.00,,FEW120,0.00,0.00,VWS V14.01,2013-06-19 04:58:00,
2013-06-18 23:03:00,80.6,45.4,29.97,South,170,0.0,2.0,29,0.00,,FEW120,0.00,0.00,VWS V14.01,2013-06-19 05:03:00,
2013-06-18 23:08:00,80.3,45.2,29.97,South,169,0.0,3.0,29,0.00,,FEW120,0.00,0.00,VWS V14.01,2013-06-19 05:08:00,
2013-06-18 23:13:00,79.9,45.7,29.97,South,169,0.0,1.0,30,0.00,,FEW120,0.00,0.00,VWS V14.01,2013-06-19 05:13:00,
2013-06-18 23:18:00,79.7,46.4,29.97,South,169,0.0,0.0,31,0.00,,FEW120,0.00,0.00,VWS V14.01,2013-06-19 05:18:00,
2013-06-18 23:23:00,79.4,45.3,29.97,SE,134,0.0,5.0,30,0.00,,FEW120,0.00,0.00,VWS V14.01,2013-06-19 05:23:00,
2013-06-18 23:28:00,79.3,45.2,29.97,South,177,1.0,8.0,30,0.00,,FEW120,0.00,0.00,VWS V14.01,2013-06-19 05:28:00,
2013-06-18 23:33:00,79.2,45.1,29.97,South,178,0.0,2.0,30,0.00,,FEW120,0.00,0.00,VWS V14.01,2013-06-19 05:33:00,
2013-06-18 23:38:00,79.1,45.0,29.96,SSW,192,0.0,8.0,30,0.00,,FEW120,0.00,0.00,VWS V14.01,2013-06-19 05:38:00,
2013-06-18 23:43:00,79.2,45.1,29.96,South,178,2.0,5.0,30,0.00,,FEW120,0.00,0.00,VWS V14.01,2013-06-19 05:43:00,
2013-06-18 23:48:00,79.1,45.0,29.96,South,180,5.0,5.0,30,0.00,,FEW120,0.00,0.00,VWS V14.01,2013-06-19 05:48:00,
2013-06-18 23:53:00,79.1,45.0,29.96,SSW,202,5.0,10.0,30,0.00,,FEW120,0.00,0.00,VWS V14.01,2013-06-19 05:53:00,
2013-06-18 23:58:00,79.0,45.0,29.96,South,184,2.0,9.0,30,0.00,,FEW120,0.00,0.00,VWS V14.01,2013-06-19 05:58:00,